Time;durP1;ratioP1;P1;durP2;ratioP2;P2;SDS_P1;SDS_P2;PMS_P1;PMS_P2;Temp;Humidity;BMP_temperature;BMP_pressure;BME280_temperature;BME280_humidity;BME280_pressure;Samples;Min_cycle;Max_cycle;Signal;HPM_P1;HPM_P2
2023/03/06 00:01:37;;;;;;;;;;;3.00;99.90;;;;;;4863873;29;19927;-61
2023/03/06 00:04:02;;;;;;;;;;;3.00;99.90;;;;;;4863943;29;19979;-60
2023/03/06 00:06:28;;;;;;;;;;;2.90;99.90;;;;;;4863649;29;19956;-61
2023/03/06 00:08:54;;;;;;;;;;;2.90;99.90;;;;;;4863992;29;19927;-60
2023/03/06 00:11:19;;;;;;;;;;;2.90;99.90;;;;;;4879565;29;19928;-61
2023/03/06 00:13:45;;;;;;;;;;;3.00;99.90;;;;;;4880543;29;20316;-61
2023/03/06 00:16:11;;;;;;;;;;;3.00;99.90;;;;;;4863891;29;20435;-61
2023/03/06 00:18:36;;;;;;;;;;;3.00;99.90;;;;;;4879976;29;19933;-61
2023/03/06 00:21:05;;;;;;;;;;;2.90;99.90;;;;;;4880038;29;19928;-61
2023/03/06 00:23:31;;;;;;;;;;;2.90;99.90;;;;;;4879498;29;19950;-61
2023/03/06 00:25:56;;;;;;;;;;;2.90;99.90;;;;;;4880352;29;19928;-61
2023/03/06 00:28:22;;;;;;;;;;;2.80;99.90;;;;;;4863492;29;19995;-63
2023/03/06 00:30:47;;;;;;;;;;;2.80;99.90;;;;;;4880417;29;19935;-61
2023/03/06 00:33:13;;;;;;;;;;;2.80;99.90;;;;;;4863714;29;19928;-60
2023/03/06 00:35:39;;;;;;;;;;;2.80;99.90;;;;;;4863162;29;19928;-60
2023/03/06 00:38:05;;;;;;;;;;;2.80;99.90;;;;;;4863296;29;20332;-61
2023/03/06 00:40:30;;;;;;;;;;;2.80;99.90;;;;;;4847611;29;20018;-61
2023/03/06 00:42:56;;;;;;;;;;;2.80;99.90;;;;;;4879652;29;20052;-61
2023/03/06 00:45:21;;;;;;;;;;;2.80;99.90;;;;;;4863017;29;19928;-63
2023/03/06 00:47:47;;;;;;;;;;;2.70;99.90;;;;;;4879848;29;19927;-61
2023/03/06 00:50:13;;;;;;;;;;;2.70;99.90;;;;;;4879994;29;19927;-61
2023/03/06 00:52:40;;;;;;;;;;;2.70;99.90;;;;;;4863218;29;19928;-61
2023/03/06 00:55:06;;;;;;;;;;;2.70;99.90;;;;;;4879869;29;19932;-61
2023/03/06 00:57:32;;;;;;;;;;;2.70;99.90;;;;;;4879487;29;19999;-61
2023/03/06 00:59:57;;;;;;;;;;;2.70;99.90;;;;;;4879833;29;19973;-61
2023/03/06 01:02:23;;;;;;;;;;;2.60;99.90;;;;;;4862987;29;20023;-61
2023/03/06 01:04:48;;;;;;;;;;;2.70;99.90;;;;;;4879392;29;19960;-61
2023/03/06 01:07:14;;;;;;;;;;;2.60;99.90;;;;;;4879375;29;20375;-61
2023/03/06 01:09:40;;;;;;;;;;;2.70;99.90;;;;;;4862647;29;19928;-62
2023/03/06 01:12:05;;;;;;;;;;;2.60;99.90;;;;;;4879643;29;19932;-62
2023/03/06 01:14:31;;;;;;;;;;;2.50;99.90;;;;;;4879259;29;19979;-62
2023/03/06 01:16:57;;;;;;;;;;;2.50;99.90;;;;;;4879464;29;19935;-62
2023/03/06 01:19:23;;;;;;;;;;;2.50;99.90;;;;;;4879382;29;19932;-61
2023/03/06 01:21:48;;;;;;;;;;;2.50;99.90;;;;;;4862648;29;19990;-61
2023/03/06 01:24:14;;;;;;;;;;;2.50;99.90;;;;;;4879320;29;19931;-61
2023/03/06 01:26:39;;;;;;;;;;;2.50;99.90;;;;;;4878964;29;19928;-62
2023/03/06 01:29:05;;;;;;;;;;;2.50;99.90;;;;;;4879305;29;20304;-61
2023/03/06 01:31:30;;;;;;;;;;;2.50;99.90;;;;;;4878900;29;19928;-64
2023/03/06 01:33:56;;;;;;;;;;;2.50;99.90;;;;;;4879175;29;19982;-61
2023/03/06 01:36:22;;;;;;;;;;;2.50;99.90;;;;;;4879253;29;20405;-63
2023/03/06 01:38:47;;;;;;;;;;;2.60;99.90;;;;;;4878766;29;19928;-62
2023/03/06 01:41:14;;;;;;;;;;;2.60;99.90;;;;;;4878262;29;19927;-62
2023/03/06 01:43:43;;;;;;;;;;;2.60;99.90;;;;;;4861575;29;19975;-61
2023/03/06 01:46:27;;;;;;;;;;;2.60;99.90;;;;;;4878886;29;20395;-62
2023/03/06 01:48:54;;;;;;;;;;;2.60;99.90;;;;;;4878641;29;19924;-61
2023/03/06 01:51:20;;;;;;;;;;;2.60;99.90;;;;;;4878955;29;19928;-61
2023/03/06 01:53:47;;;;;;;;;;;2.60;99.90;;;;;;4878410;29;19932;-62
2023/03/06 01:56:13;;;;;;;;;;;2.50;99.90;;;;;;4878955;29;20180;-61
2023/03/06 01:58:42;;;;;;;;;;;2.40;99.90;;;;;;4878588;29;20287;-61
2023/03/06 02:01:09;;;;;;;;;;;2.40;99.90;;;;;;4862219;29;19928;-62
2023/03/06 02:03:35;;;;;;;;;;;2.40;99.90;;;;;;4861849;29;20326;-65
2023/03/06 02:06:00;;;;;;;;;;;2.30;99.90;;;;;;4862009;29;20059;-59
2023/03/06 02:08:26;;;;;;;;;;;2.20;99.90;;;;;;4861743;29;19928;-60
2023/03/06 02:11:07;;;;;;;;;;;2.20;99.90;;;;;;4878200;29;19927;-62
2023/03/06 02:13:33;;;;;;;;;;;2.20;99.90;;;;;;4878545;29;19951;-61
2023/03/06 02:15:59;;;;;;;;;;;2.10;99.90;;;;;;4878132;29;19935;-61
2023/03/06 02:18:25;;;;;;;;;;;2.10;99.90;;;;;;4878498;29;19928;-60
2023/03/06 02:20:53;;;;;;;;;;;2.10;99.90;;;;;;4878149;29;19928;-61
2023/03/06 02:23:28;;;;;;;;;;;2.20;99.90;;;;;;4878342;29;20095;-62
2023/03/06 02:25:54;;;;;;;;;;;2.00;99.90;;;;;;4878167;29;19931;-63
2023/03/06 02:28:20;;;;;;;;;;;2.00;99.90;;;;;;4862115;29;19928;-64
2023/03/06 02:30:47;;;;;;;;;;;2.00;99.90;;;;;;4861250;29;19969;-61
2023/03/06 02:33:14;;;;;;;;;;;2.00;99.90;;;;;;4861653;29;19928;-61
2023/03/06 02:35:42;;;;;;;;;;;2.00;99.90;;;;;;4878030;29;19927;-64
2023/03/06 02:38:13;;;;;;;;;;;2.00;99.90;;;;;;4861915;29;19927;-61
2023/03/06 02:40:40;;;;;;;;;;;2.00;99.90;;;;;;4878306;29;20014;-64
2023/03/06 02:43:06;;;;;;;;;;;2.00;99.90;;;;;;4877931;29;19928;-61
2023/03/06 02:45:35;;;;;;;;;;;2.00;99.90;;;;;;4880027;29;20329;-60
2023/03/06 02:48:00;;;;;;;;;;;2.00;99.90;;;;;;4881827;29;20621;-63
2023/03/06 02:50:26;;;;;;;;;;;2.00;99.90;;;;;;4881840;29;19932;-61
2023/03/06 02:52:51;;;;;;;;;;;2.00;99.90;;;;;;4850122;29;19935;-60
2023/03/06 02:55:17;;;;;;;;;;;2.00;99.90;;;;;;4865598;29;19946;-60
2023/03/06 02:57:43;;;;;;;;;;;2.00;99.90;;;;;;4834890;29;20273;-64
2023/03/06 03:00:09;;;;;;;;;;;2.10;99.90;;;;;;4882134;29;20292;-60
2023/03/06 03:02:34;;;;;;;;;;;2.00;99.90;;;;;;4881580;29;19927;-61
2023/03/06 03:05:00;;;;;;;;;;;2.00;99.90;;;;;;4849620;29;20026;-60
2023/03/06 03:07:26;;;;;;;;;;;2.10;99.90;;;;;;4865315;29;19931;-60
2023/03/06 03:09:51;;;;;;;;;;;2.10;99.90;;;;;;4881309;29;20026;-61
2023/03/06 03:12:17;;;;;;;;;;;2.00;99.90;;;;;;4881670;29;20001;-61
2023/03/06 03:14:42;;;;;;;;;;;2.00;99.90;;;;;;4881775;29;19927;-60
2023/03/06 03:17:08;;;;;;;;;;;2.10;99.90;;;;;;4864754;29;20026;-61
2023/03/06 03:19:33;;;;;;;;;;;2.20;99.90;;;;;;4881584;29;20372;-61
2023/03/06 03:21:59;;;;;;;;;;;2.20;99.90;;;;;;4881209;29;19935;-60
2023/03/06 03:24:25;;;;;;;;;;;2.20;99.90;;;;;;4864764;29;19988;-61
2023/03/06 03:26:51;;;;;;;;;;;2.10;99.90;;;;;;4881035;29;19928;-61
2023/03/06 03:29:17;;;;;;;;;;;2.20;99.90;;;;;;4865067;29;19928;-61
2023/03/06 03:31:42;;;;;;;;;;;2.10;99.90;;;;;;4881569;29;19935;-61
2023/03/06 03:34:08;;;;;;;;;;;2.00;99.90;;;;;;4864702;29;19928;-62
2023/03/06 03:36:33;;;;;;;;;;;2.20;99.90;;;;;;4881251;29;19928;-61
2023/03/06 03:38:59;;;;;;;;;;;1.90;99.90;;;;;;4864306;29;20288;-61
2023/03/06 03:41:25;;;;;;;;;;;1.90;99.90;;;;;;4849404;29;19932;-61
2023/03/06 03:43:50;;;;;;;;;;;1.90;99.90;;;;;;4880584;29;19935;-62
2023/03/06 03:46:16;;;;;;;;;;;1.90;99.90;;;;;;4880861;29;19974;-61
2023/03/06 03:48:42;;;;;;;;;;;1.80;99.90;;;;;;4849066;29;19928;-61
2023/03/06 03:51:09;;;;;;;;;;;1.80;99.90;;;;;;4864071;29;20070;-61
2023/03/06 03:53:34;;;;;;;;;;;1.90;99.90;;;;;;4849302;29;20345;-62
2023/03/06 03:56:00;;;;;;;;;;;1.90;99.90;;;;;;4879961;29;20019;-61
2023/03/06 03:58:26;;;;;;;;;;;1.80;99.90;;;;;;4848255;29;20352;-61
2023/03/06 04:00:51;;;;;;;;;;;1.90;99.90;;;;;;4880802;29;19928;-63
2023/03/06 04:03:17;;;;;;;;;;;1.90;99.90;;;;;;4880698;29;19991;-60
2023/03/06 04:05:42;;;;;;;;;;;1.90;99.90;;;;;;4848686;29;19927;-60
2023/03/06 04:08:08;;;;;;;;;;;1.80;99.90;;;;;;4879951;29;19928;-60
2023/03/06 04:10:35;;;;;;;;;;;1.90;99.90;;;;;;4880663;29;19928;-60
2023/03/06 04:13:00;;;;;;;;;;;1.80;99.90;;;;;;4880200;29;20348;-60
2023/03/06 04:15:26;;;;;;;;;;;1.80;99.90;;;;;;4879848;29;19928;-60
2023/03/06 04:17:52;;;;;;;;;;;1.80;99.90;;;;;;4879103;29;20039;-61
2023/03/06 04:20:17;;;;;;;;;;;1.90;99.90;;;;;;4879725;29;20351;-61
2023/03/06 04:22:43;;;;;;;;;;;1.70;99.90;;;;;;4880307;29;20292;-60
2023/03/06 04:25:09;;;;;;;;;;;1.70;99.90;;;;;;4878672;29;19970;-61
2023/03/06 04:27:34;;;;;;;;;;;1.70;99.90;;;;;;4880530;29;19928;-61
2023/03/06 04:30:00;;;;;;;;;;;1.70;99.90;;;;;;4880050;29;19975;-61
2023/03/06 04:32:26;;;;;;;;;;;1.70;99.90;;;;;;4880054;29;19960;-61
2023/03/06 04:34:51;;;;;;;;;;;1.80;99.90;;;;;;4863665;29;19928;-61
2023/03/06 04:37:21;;;;;;;;;;;1.80;99.90;;;;;;4879698;29;19924;-61
2023/03/06 04:39:46;;;;;;;;;;;1.80;99.90;;;;;;4848244;29;19928;-61
2023/03/06 04:42:12;;;;;;;;;;;1.80;99.90;;;;;;4878579;29;19934;-62
2023/03/06 04:44:37;;;;;;;;;;;1.80;99.90;;;;;;4863366;29;19931;-61
2023/03/06 04:47:03;;;;;;;;;;;1.80;99.90;;;;;;4879838;29;19928;-61
2023/03/06 04:49:29;;;;;;;;;;;1.90;99.90;;;;;;4848320;29;19927;-60
2023/03/06 04:51:54;;;;;;;;;;;1.90;99.90;;;;;;4848302;29;19927;-60
2023/03/06 04:54:20;;;;;;;;;;;2.00;99.90;;;;;;4862896;29;19965;-60
2023/03/06 04:56:45;;;;;;;;;;;2.00;99.90;;;;;;4863514;29;19932;-61
2023/03/06 04:59:11;;;;;;;;;;;2.10;99.90;;;;;;4879374;29;20031;-61
2023/03/06 05:01:36;;;;;;;;;;;2.00;99.90;;;;;;4879833;29;19939;-61
2023/03/06 05:04:02;;;;;;;;;;;1.90;99.90;;;;;;4862842;29;19979;-62
2023/03/06 05:06:28;;;;;;;;;;;1.80;99.90;;;;;;4879689;29;19928;-61
2023/03/06 05:08:53;;;;;;;;;;;1.80;99.90;;;;;;4879224;29;19967;-61
2023/03/06 05:11:19;;;;;;;;;;;1.80;99.90;;;;;;4862633;29;19979;-61
2023/03/06 05:13:44;;;;;;;;;;;1.80;99.90;;;;;;4879632;29;19928;-61
2023/03/06 05:16:10;;;;;;;;;;;1.70;99.90;;;;;;4879168;29;19928;-61
2023/03/06 05:18:36;;;;;;;;;;;2.20;99.90;;;;;;4878221;29;19931;-62
2023/03/06 05:21:02;;;;;;;;;;;1.80;99.90;;;;;;4879258;29;19928;-64
2023/03/06 05:23:28;;;;;;;;;;;1.70;99.90;;;;;;4879156;29;19932;-60
2023/03/06 05:25:54;;;;;;;;;;;1.80;99.90;;;;;;4879396;29;19928;-60
2023/03/06 05:28:19;;;;;;;;;;;1.80;99.90;;;;;;4861946;29;19980;-59
2023/03/06 05:30:45;;;;;;;;;;;1.80;99.90;;;;;;4878108;29;20015;-60
2023/03/06 05:33:11;;;;;;;;;;;1.80;99.90;;;;;;4862614;29;19928;-61
2023/03/06 05:35:36;;;;;;;;;;;1.80;99.90;;;;;;4879322;29;19984;-61
2023/03/06 05:38:02;;;;;;;;;;;2.00;99.90;;;;;;4862626;29;20384;-60
2023/03/06 05:40:29;;;;;;;;;;;1.90;99.90;;;;;;4878231;29;20718;-60
2023/03/06 05:42:55;;;;;;;;;;;1.90;99.90;;;;;;4846907;29;19980;-60
2023/03/06 05:45:20;;;;;;;;;;;1.90;99.90;;;;;;4861597;29;19928;-60
2023/03/06 05:47:46;;;;;;;;;;;1.90;99.90;;;;;;4878968;29;19943;-60
2023/03/06 05:50:13;;;;;;;;;;;1.90;99.90;;;;;;4862246;29;19935;-60
2023/03/06 05:52:39;;;;;;;;;;;1.90;99.90;;;;;;4878792;29;19928;-61
2023/03/06 05:55:05;;;;;;;;;;;1.90;99.90;;;;;;4878809;29;19928;-61
2023/03/06 05:57:30;;;;;;;;;;;1.90;99.90;;;;;;4861924;29;20005;-62
2023/03/06 05:59:56;;;;;;;;;;;1.80;99.90;;;;;;4862218;29;19928;-62
2023/03/06 06:02:22;;;;;;;;;;;1.80;99.90;;;;;;4846116;29;19928;-60
2023/03/06 06:04:47;;;;;;;;;;;2.60;99.90;;;;;;4878506;29;19992;-61
2023/03/06 06:07:14;;;;;;;;;;;1.70;99.90;;;;;;4878468;29;19932;-61
2023/03/06 06:09:39;;;;;;;;;;;1.80;99.90;;;;;;4862087;29;20342;-62
2023/03/06 06:12:05;;;;;;;;;;;1.70;99.90;;;;;;4862054;29;20030;-61
2023/03/06 06:14:32;;;;;;;;;;;1.70;99.90;;;;;;4878063;29;19930;-61
2023/03/06 06:16:57;;;;;;;;;;;1.70;99.90;;;;;;4878615;29;19928;-61
2023/03/06 06:19:23;;;;;;;;;;;1.70;99.90;;;;;;4861141;29;19928;-61
2023/03/06 06:21:50;;;;;;;;;;;1.60;99.90;;;;;;4862198;29;20027;-61
2023/03/06 06:24:16;;;;;;;;;;;1.70;99.90;;;;;;4861336;29;19931;-60
2023/03/06 06:26:42;;;;;;;;;;;1.60;99.90;;;;;;4878648;29;19932;-60
2023/03/06 06:29:08;;;;;;;;;;;1.60;99.90;;;;;;4878263;29;19928;-60
2023/03/06 06:31:35;;;;;;;;;;;1.60;99.90;;;;;;4878148;29;20465;-60
2023/03/06 06:34:01;;;;;;;;;;;1.60;99.90;;;;;;4878340;29;19927;-61
2023/03/06 06:36:27;;;;;;;;;;;1.60;99.90;;;;;;4861617;29;19935;-60
2023/03/06 06:38:53;;;;;;;;;;;1.60;99.90;;;;;;4877499;29;20311;-62
2023/03/06 06:41:18;;;;;;;;;;;1.60;99.90;;;;;;4876368;29;20071;-61
2023/03/06 06:43:44;;;;;;;;;;;1.60;99.90;;;;;;4877576;29;19944;-61
2023/03/06 06:46:09;;;;;;;;;;;1.70;99.90;;;;;;4877833;29;19928;-60
2023/03/06 06:48:36;;;;;;;;;;;1.60;99.90;;;;;;4860979;29;19927;-60
2023/03/06 06:51:02;;;;;;;;;;;1.70;99.90;;;;;;4878075;29;19988;-60
2023/03/06 06:53:27;;;;;;;;;;;1.70;99.90;;;;;;4861287;29;19970;-60
2023/03/06 06:55:53;;;;;;;;;;;1.70;99.90;;;;;;4876716;29;20298;-61
2023/03/06 06:58:18;;;;;;;;;;;1.70;99.90;;;;;;4877746;29;19937;-62
2023/03/06 07:00:44;;;;;;;;;;;1.70;99.90;;;;;;4861742;29;19928;-62
2023/03/06 07:03:12;;;;;;;;;;;1.70;99.90;;;;;;4878176;29;20398;-61
2023/03/06 07:05:38;;;;;;;;;;;1.80;99.90;;;;;;4877792;29;19950;-60
2023/03/06 07:08:04;;;;;;;;;;;1.80;99.90;;;;;;4860986;29;19928;-60
2023/03/06 07:10:29;;;;;;;;;;;1.80;99.90;;;;;;4860889;29;19928;-61
2023/03/06 07:12:55;;;;;;;;;;;1.80;99.90;;;;;;4878113;29;19931;-60
2023/03/06 07:15:21;;;;;;;;;;;1.90;99.90;;;;;;4877489;29;20341;-61
2023/03/06 07:17:47;;;;;;;;;;;2.00;99.90;;;;;;4861288;29;19928;-61
2023/03/06 07:20:13;;;;;;;;;;;2.30;99.90;;;;;;4877885;29;19928;-60
2023/03/06 07:22:38;;;;;;;;;;;2.90;99.90;;;;;;4877495;29;20488;-61
2023/03/06 07:25:04;;;;;;;;;;;3.40;99.90;;;;;;4878013;29;19971;-63
2023/03/06 07:27:30;;;;;;;;;;;4.10;99.90;;;;;;4877609;29;19928;-61
2023/03/06 07:29:56;;;;;;;;;;;4.70;99.90;;;;;;4861632;29;20398;-61
2023/03/06 07:32:22;;;;;;;;;;;5.20;99.90;;;;;;4880254;29;19978;-64
2023/03/06 07:34:47;;;;;;;;;;;5.90;99.90;;;;;;4864276;29;19954;-60
2023/03/06 07:37:13;;;;;;;;;;;6.40;99.90;;;;;;4881348;29;20399;-60
2023/03/06 07:39:38;;;;;;;;;;;7.00;99.90;;;;;;4880406;29;20320;-60
2023/03/06 07:42:06;;;;;;;;;;;;;;;;;;4880925;29;19927;-62
2023/03/06 07:44:35;;;;;;;;;;;7.50;99.90;;;;;;4863651;29;19928;-62
2023/03/06 07:47:00;;;;;;;;;;;9.00;99.90;;;;;;4881368;29;19935;-61
2023/03/06 07:49:26;;;;;;;;;;;9.30;99.90;;;;;;4880887;29;20287;-61
2023/03/06 07:51:52;;;;;;;;;;;9.60;99.90;;;;;;4849352;29;20022;-60
2023/03/06 07:54:17;;;;;;;;;;;9.80;99.90;;;;;;4864549;29;19927;-62
2023/03/06 07:56:43;;;;;;;;;;;9.90;99.90;;;;;;4863973;29;20481;-61
2023/03/06 07:59:09;;;;;;;;;;;10.10;99.90;;;;;;4881032;29;19934;-61
2023/03/06 08:01:38;;;;;;;;;;;10.40;99.90;;;;;;4880611;29;20036;-61
2023/03/06 08:04:04;;;;;;;;;;;10.80;99.90;;;;;;4848489;29;19928;-61
2023/03/06 08:06:29;;;;;;;;;;;11.20;99.90;;;;;;4880266;29;19927;-63
2023/03/06 08:08:55;;;;;;;;;;;11.90;99.90;;;;;;4864518;29;20026;-62
2023/03/06 08:11:22;;;;;;;;;;;12.50;99.90;;;;;;4880881;29;19934;-63
2023/03/06 08:13:48;;;;;;;;;;;12.90;99.90;;;;;;4863775;29;20369;-60
2023/03/06 08:16:14;;;;;;;;;;;13.30;99.90;;;;;;4864231;29;19982;-61
2023/03/06 08:18:40;;;;;;;;;;;13.50;99.90;;;;;;4880055;29;19955;-61
2023/03/06 08:21:07;;;;;;;;;;;13.70;99.90;;;;;;4880574;29;20349;-62
2023/03/06 08:23:33;;;;;;;;;;;13.30;99.90;;;;;;4863355;29;19944;-60
2023/03/06 08:25:59;;;;;;;;;;;12.40;99.90;;;;;;4863948;29;19928;-61
2023/03/06 08:28:25;;;;;;;;;;;11.20;99.90;;;;;;4880536;29;20079;-61
2023/03/06 08:30:51;;;;;;;;;;;10.40;99.90;;;;;;4863532;29;20257;-61
2023/03/06 08:33:16;;;;;;;;;;;9.50;99.90;;;;;;4832921;29;19979;-61
2023/03/06 08:35:42;;;;;;;;;;;8.90;99.90;;;;;;4879966;29;19928;-61
2023/03/06 08:38:07;;;;;;;;;;;8.50;99.90;;;;;;4880437;29;20040;-61
2023/03/06 08:40:33;;;;;;;;;;;8.40;99.90;;;;;;4862014;29;19928;-62
2023/03/06 08:42:59;;;;;;;;;;;8.20;99.90;;;;;;4876857;29;19923;-63
2023/03/06 08:45:25;;;;;;;;;;;8.20;99.90;;;;;;4875445;29;19932;-61
2023/03/06 08:47:50;;;;;;;;;;;8.50;99.90;;;;;;4874986;29;19924;-61
2023/03/06 08:50:16;;;;;;;;;;;9.20;99.90;;;;;;4863115;29;19967;-62
2023/03/06 08:52:41;;;;;;;;;;;9.90;99.90;;;;;;4878797;29;19927;-61
2023/03/06 08:55:07;;;;;;;;;;;10.60;99.90;;;;;;4879113;29;19928;-61
2023/03/06 08:57:33;;;;;;;;;;;11.30;99.90;;;;;;4879322;29;19979;-65
2023/03/06 08:59:58;;;;;;;;;;;11.70;99.90;;;;;;4844261;29;20229;-65
2023/03/06 09:02:24;;;;;;;;;;;12.10;99.90;;;;;;4844198;29;19990;-62
2023/03/06 09:04:50;;;;;;;;;;;11.70;99.90;;;;;;4862740;29;19995;-62
2023/03/06 09:07:15;;;;;;;;;;;11.20;99.90;;;;;;4879474;29;19932;-62
2023/03/06 09:09:41;;;;;;;;;;;11.20;99.90;;;;;;4878303;29;19927;-60
2023/03/06 09:12:07;;;;;;;;;;;11.50;99.90;;;;;;4879294;29;19928;-62
2023/03/06 09:14:32;;;;;;;;;;;11.80;99.90;;;;;;4862822;29;19928;-65
2023/03/06 09:16:58;;;;;;;;;;;11.90;99.90;;;;;;4862581;29;19972;-62
2023/03/06 09:19:23;;;;;;;;;;;11.60;99.90;;;;;;4879012;29;19928;-63
2023/03/06 09:21:49;;;;;;;;;;;11.10;99.90;;;;;;4862338;29;19928;-62
2023/03/06 09:24:15;;;;;;;;;;;10.70;99.90;;;;;;4876692;29;20430;-61
2023/03/06 09:26:40;;;;;;;;;;;10.30;99.90;;;;;;4861694;29;20377;-62
2023/03/06 09:29:06;;;;;;;;;;;10.10;99.90;;;;;;4879252;29;20405;-63
2023/03/06 09:31:32;;;;;;;;;;;9.80;99.90;;;;;;4860500;29;20023;-61
2023/03/06 09:33:57;;;;;;;;;;;9.50;99.90;;;;;;4878935;29;20023;-61
2023/03/06 09:36:23;;;;;;;;;;;9.40;99.90;;;;;;4847609;29;19928;-61
2023/03/06 09:38:49;;;;;;;;;;;9.30;99.90;;;;;;4878684;29;19983;-62
2023/03/06 09:41:20;;;;;;;;;;;9.20;99.90;;;;;;4862485;29;19996;-63
2023/03/06 09:43:47;;;;;;;;;;;9.10;99.90;;;;;;4878759;29;19928;-63
2023/03/06 09:46:38;;;;;;;;;;;9.10;99.90;;;;;;4879175;29;19927;-62
2023/03/06 09:49:15;;;;;;;;;;;9.10;99.90;;;;;;4879062;29;19928;-62
2023/03/06 09:51:50;;;;;;;;;;;9.10;99.90;;;;;;4878791;29;19928;-62
2023/03/06 09:54:19;;;;;;;;;;;9.00;99.90;;;;;;4879122;29;20319;-62
2023/03/06 09:56:49;;;;;;;;;;;9.00;99.90;;;;;;4862241;29;20027;-61
2023/03/06 09:59:24;;;;;;;;;;;8.90;99.90;;;;;;4847108;29;19928;-61
2023/03/06 10:02:00;;;;;;;;;;;8.90;99.90;;;;;;4861862;29;19981;-61
2023/03/06 10:04:31;;;;;;;;;;;8.90;99.90;;;;;;4878917;29;20018;-62
2023/03/06 10:07:03;;;;;;;;;;;8.80;99.90;;;;;;4878308;29;19967;-63
2023/03/06 10:09:37;;;;;;;;;;;8.80;99.90;;;;;;4878770;29;20324;-62
2023/03/06 10:12:18;;;;;;;;;;;8.80;99.90;;;;;;4878108;29;19988;-61
2023/03/06 10:14:44;;;;;;;;;;;8.80;99.90;;;;;;4878439;29;19927;-64
2023/03/06 10:17:20;;;;;;;;;;;8.80;99.90;;;;;;4878358;29;20388;-61
2023/03/06 10:19:48;;;;;;;;;;;8.80;99.90;;;;;;4878193;29;19932;-63
2023/03/06 10:22:17;;;;;;;;;;;8.80;99.90;;;;;;4862019;29;19927;-62
2023/03/06 10:24:44;;;;;;;;;;;8.70;99.90;;;;;;4878326;29;19935;-64
2023/03/06 10:27:31;;;;;;;;;;;8.70;99.90;;;;;;4862024;29;19928;-61
2023/03/06 10:30:00;;;;;;;;;;;8.70;99.90;;;;;;4861738;29;19939;-62
2023/03/06 10:32:26;;;;;;;;;;;8.70;99.90;;;;;;4861992;29;20392;-62
2023/03/06 10:34:52;;;;;;;;;;;8.60;99.90;;;;;;4861819;29;19927;-64
2023/03/06 10:37:19;;;;;;;;;;;8.60;99.90;;;;;;4877115;29;20026;-62
2023/03/06 10:39:47;;;;;;;;;;;8.80;99.90;;;;;;4861861;29;20186;-63
2023/03/06 10:42:12;;;;;;;;;;;8.80;99.90;;;;;;4861914;29;19927;-61
2023/03/06 10:44:38;;;;;;;;;;;8.80;99.90;;;;;;4878210;29;19928;-63
2023/03/06 10:47:23;;;;;;;;;;;8.80;99.90;;;;;;4861814;29;19928;-62
2023/03/06 10:50:02;;;;;;;;;;;8.70;99.90;;;;;;4877856;29;19984;-64
2023/03/06 10:52:29;;;;;;;;;;;8.70;99.90;;;;;;4878267;29;19927;-61
2023/03/06 10:55:15;;;;;;;;;;;8.80;99.90;;;;;;4846349;29;20067;-61
2023/03/06 10:57:40;;;;;;;;;;;8.80;99.90;;;;;;4877721;29;19947;-61
2023/03/06 11:00:22;;;;;;;;;;;8.90;99.90;;;;;;4877343;29;20140;-61
2023/03/06 11:03:02;;;;;;;;;;;8.80;99.90;;;;;;4861743;29;19938;-62
2023/03/06 11:05:28;;;;;;;;;;;8.80;99.90;;;;;;4862066;29;19927;-60
2023/03/06 11:08:00;;;;;;;;;;;8.80;99.90;;;;;;4881769;29;20344;-62
2023/03/06 11:10:27;;;;;;;;;;;8.90;99.90;;;;;;4881775;29;20014;-61
2023/03/06 11:13:18;;;;;;;;;;;8.90;99.90;;;;;;4881625;29;20018;-62
2023/03/06 11:15:59;;;;;;;;;;;8.90;99.90;;;;;;4863893;29;20173;-61
2023/03/06 11:18:27;;;;;;;;;;;8.80;99.90;;;;;;4881870;29;20299;-60
2023/03/06 11:20:53;;;;;;;;;;;8.90;99.90;;;;;;4881443;29;19928;-65
2023/03/06 11:23:36;;;;;;;;;;;9.00;99.90;;;;;;4881690;29;20018;-62
2023/03/06 11:26:22;;;;;;;;;;;9.10;99.90;;;;;;4881257;29;19928;-62
2023/03/06 11:28:51;;;;;;;;;;;9.20;99.90;;;;;;4864624;29;19939;-62
2023/03/06 11:31:28;;;;;;;;;;;9.20;99.90;;;;;;4863327;29;20022;-62
2023/03/06 11:33:55;;;;;;;;;;;9.10;99.90;;;;;;4880882;29;20329;-63
2023/03/06 11:36:24;;;;;;;;;;;9.10;99.90;;;;;;4881440;29;19944;-62
2023/03/06 11:38:50;;;;;;;;;;;9.10;99.90;;;;;;4881468;29;19928;-63
2023/03/06 11:41:29;;;;;;;;;;;9.20;99.90;;;;;;4849182;29;19931;-64
2023/03/06 11:43:55;;;;;;;;;;;9.30;99.90;;;;;;4864428;29;19932;-64
2023/03/06 11:46:21;;;;;;;;;;;9.40;99.90;;;;;;4864431;29;19928;-63
2023/03/06 11:49:05;;;;;;;;;;;9.50;99.90;;;;;;4881236;29;19934;-61
2023/03/06 11:51:36;;;;;;;;;;;9.60;99.80;;;;;;4864558;29;19928;-62
2023/03/06 11:54:02;;;;;;;;;;;9.50;99.50;;;;;;4880481;29;19927;-62
2023/03/06 11:56:38;;;;;;;;;;;9.50;98.80;;;;;;4881040;29;19951;-61
2023/03/06 11:59:22;;;;;;;;;;;9.40;99.00;;;;;;4880852;29;19928;-61
2023/03/06 12:01:56;;;;;;;;;;;9.40;98.20;;;;;;4864394;29;19988;-61
2023/03/06 12:04:29;;;;;;;;;;;9.50;97.90;;;;;;4880807;29;19928;-63
2023/03/06 12:07:02;;;;;;;;;;;9.50;98.40;;;;;;4880314;29;19987;-64
2023/03/06 12:09:36;;;;;;;;;;;9.50;97.80;;;;;;4880333;29;19935;-62
2023/03/06 12:12:04;;;;;;;;;;;9.60;98.30;;;;;;4879174;29;19930;-61
2023/03/06 12:14:32;;;;;;;;;;;9.50;98.40;;;;;;4880169;29;19935;-61
2023/03/06 12:17:16;;;;;;;;;;;9.40;98.50;;;;;;4863271;29;19928;-65
2023/03/06 12:19:42;;;;;;;;;;;9.40;99.50;;;;;;4880000;29;19935;-63
2023/03/06 12:22:13;;;;;;;;;;;9.40;99.40;;;;;;4880436;29;20291;-63
2023/03/06 12:24:51;;;;;;;;;;;9.40;99.40;;;;;;4880608;29;19928;-64
2023/03/06 12:27:16;;;;;;;;;;;9.50;99.90;;;;;;4880241;29;19928;-63
2023/03/06 12:29:45;;;;;;;;;;;9.50;99.90;;;;;;4864342;29;19927;-62
2023/03/06 12:32:29;;;;;;;;;;;9.40;99.90;;;;;;4880434;29;19928;-62
2023/03/06 12:35:11;;;;;;;;;;;9.40;99.90;;;;;;4880708;29;19932;-61
2023/03/06 12:37:59;;;;;;;;;;;9.30;99.90;;;;;;4848424;29;19928;-62
2023/03/06 12:40:43;;;;;;;;;;;9.20;99.90;;;;;;4879806;29;20425;-62
2023/03/06 12:43:28;;;;;;;;;;;9.20;99.90;;;;;;4863321;29;20260;-63
2023/03/06 12:45:56;;;;;;;;;;;9.20;99.90;;;;;;4880311;29;20033;-61
2023/03/06 12:48:25;;;;;;;;;;;9.20;99.30;;;;;;4863366;29;20157;-63
2023/03/06 12:50:51;;;;;;;;;;;9.10;99.10;;;;;;4880183;29;19927;-62
2023/03/06 12:53:27;;;;;;;;;;;9.00;99.70;;;;;;4879604;29;19934;-62
2023/03/06 12:55:53;;;;;;;;;;;8.90;99.90;;;;;;4863660;29;19979;-65
2023/03/06 12:58:30;;;;;;;;;;;8.90;99.90;;;;;;4863031;29;20006;-64
2023/03/06 13:00:56;;;;;;;;;;;8.80;99.50;;;;;;4880059;29;19979;-63
2023/03/06 13:03:30;;;;;;;;;;;8.70;99.70;;;;;;4879878;29;20378;-62
2023/03/06 13:06:12;;;;;;;;;;;8.70;99.50;;;;;;4879827;29;19928;-63
2023/03/06 13:08:41;;;;;;;;;;;8.60;99.80;;;;;;4863229;29;19928;-64
2023/03/06 13:11:21;;;;;;;;;;;8.60;99.70;;;;;;4878677;29;20359;-65
2023/03/06 13:13:47;;;;;;;;;;;8.60;99.80;;;;;;4863038;29;19974;-63
2023/03/06 13:16:32;;;;;;;;;;;8.50;99.90;;;;;;4862530;29;19967;-63
2023/03/06 13:19:14;;;;;;;;;;;8.40;99.80;;;;;;4879748;29;19927;-62
2023/03/06 13:21:40;;;;;;;;;;;8.40;99.80;;;;;;4879383;29;19936;-62
2023/03/06 13:24:32;;;;;;;;;;;8.30;99.60;;;;;;4862724;29;20018;-63
2023/03/06 13:26:58;;;;;;;;;;;8.40;99.90;;;;;;4877275;29;19928;-62
2023/03/06 13:29:36;;;;;;;;;;;8.40;99.80;;;;;;4847022;29;19928;-61
2023/03/06 13:32:02;;;;;;;;;;;8.30;99.60;;;;;;4879281;29;19928;-62
2023/03/06 13:34:30;;;;;;;;;;;8.40;99.40;;;;;;4862402;29;20265;-64
2023/03/06 13:37:15;;;;;;;;;;;8.40;99.60;;;;;;4862702;29;20019;-62
2023/03/06 13:39:57;;;;;;;;;;;8.50;99.60;;;;;;4847419;29;19931;-62
2023/03/06 13:42:46;;;;;;;;;;;8.50;99.20;;;;;;4862197;29;19927;-62
2023/03/06 13:45:16;;;;;;;;;;;8.50;99.00;;;;;;4860285;29;19934;-65
2023/03/06 13:47:52;;;;;;;;;;;8.40;99.40;;;;;;4862297;29;20419;-62
2023/03/06 13:50:21;;;;;;;;;;;8.40;99.20;;;;;;4862495;29;19935;-61
2023/03/06 13:53:07;;;;;;;;;;;8.40;99.40;;;;;;4878783;29;19976;-62
2023/03/06 13:55:38;;;;;;;;;;;8.50;99.80;;;;;;4842222;29;20007;-62
2023/03/06 13:58:10;;;;;;;;;;;8.50;99.70;;;;;;4879257;29;19932;-63
2023/03/06 14:00:44;;;;;;;;;;;8.50;98.90;;;;;;4876595;29;19972;-62
2023/03/06 14:03:29;;;;;;;;;;;8.40;98.30;;;;;;4876173;29;19982;-62
2023/03/06 14:05:54;;;;;;;;;;;8.40;98.10;;;;;;4846322;29;19935;-62
2023/03/06 14:08:21;;;;;;;;;;;8.30;98.30;;;;;;4876609;29;19928;-62
2023/03/06 14:10:56;;;;;;;;;;;8.20;98.90;;;;;;4861946;29;19928;-62
2023/03/06 14:13:23;;;;;;;;;;;8.20;99.20;;;;;;4861743;29;20075;-62
2023/03/06 14:15:50;;;;;;;;;;;8.30;99.20;;;;;;4862450;29;19928;-62
2023/03/06 14:18:22;;;;;;;;;;;8.30;98.70;;;;;;4858053;29;20026;-64
2023/03/06 14:20:56;;;;;;;;;;;8.20;98.40;;;;;;4877495;29;19931;-64
2023/03/06 14:23:26;;;;;;;;;;;8.20;99.20;;;;;;4860326;29;19928;-62
2023/03/06 14:26:00;;;;;;;;;;;8.10;98.70;;;;;;4860970;29;19932;-61
2023/03/06 14:28:27;;;;;;;;;;;8.10;98.50;;;;;;4878225;29;19980;-64
2023/03/06 14:30:54;;;;;;;;;;;8.10;98.60;;;;;;4878438;29;20343;-61
2023/03/06 14:33:31;;;;;;;;;;;8.10;99.40;;;;;;4874940;29;20031;-61
2023/03/06 14:35:59;;;;;;;;;;;8.10;99.20;;;;;;4878450;29;19928;-63